createdAt,value
2022-08-17T00:00:40.304Z,25.100000
2022-08-17T00:05:19.918Z,25.200000
2022-08-17T00:10:19.425Z,25.176923
2022-08-17T00:15:22.592Z,25.100000
2022-08-17T00:20:19.694Z,25.172727
2022-08-17T00:25:19.765Z,25.200000
2022-08-17T00:30:19.832Z,25.136364
2022-08-17T00:35:19.823Z,25.036364
2022-08-17T00:40:26.269Z,24.972727
2022-08-17T00:45:19.737Z,24.900000
2022-08-17T00:50:20.383Z,24.930000
2022-08-17T00:55:19.789Z,24.910000
2022-08-17T01:00:26.577Z,24.900000
2022-08-17T01:05:19.830Z,24.955556
2022-08-17T01:10:58.730Z,25.110000
2022-08-17T01:15:19.727Z,25.200000
2022-08-17T01:20:26.990Z,25.158333
2022-08-17T01:25:31.735Z,25.000000
2022-08-17T01:30:57.060Z,24.777778
2022-08-17T01:35:24.220Z,24.616667
2022-08-17T01:40:19.781Z,24.500000
2022-08-17T01:45:19.696Z,24.500000
2022-08-17T01:50:21.484Z,24.490000
2022-08-17T01:55:22.429Z,24.400000
2022-08-17T02:00:19.733Z,24.266667
2022-08-17T02:05:19.805Z,24.200000
2022-08-17T02:10:21.937Z,24.190000
2022-08-17T02:15:19.665Z,24.190000
2022-08-17T02:20:41.951Z,24.200000
2022-08-17T02:25:20.291Z,24.250000
2022-08-17T02:31:02.094Z,24.175000
2022-08-17T02:35:19.758Z,24.057143
2022-08-17T02:40:35.679Z,23.923077
2022-08-17T02:45:20.183Z,23.891667
2022-08-17T02:50:19.846Z,23.800000
2022-08-17T02:55:20.169Z,23.722222
2022-08-17T03:00:31.780Z,23.571429
2022-08-17T03:05:20.377Z,23.330000
2022-08-17T03:10:19.803Z,23.083333
2022-08-17T03:15:19.733Z,22.927273
2022-08-17T03:20:19.870Z,22.836364
2022-08-17T03:25:22.684Z,22.712500
2022-08-17T03:30:21.239Z,22.600000
2022-08-17T03:35:19.987Z,22.600000
2022-08-17T03:40:34.529Z,22.600000
2022-08-17T03:45:21.383Z,22.600000
2022-08-17T03:50:19.825Z,22.666667
2022-08-17T03:55:35.741Z,22.700000
2022-08-17T04:00:19.897Z,22.760000
2022-08-17T04:05:22.259Z,22.872727
2022-08-17T04:10:23.618Z,23.011111
2022-08-17T04:15:28.109Z,23.260000
2022-08-17T04:20:19.941Z,23.570000
2022-08-17T04:25:23.575Z,23.900000
2022-08-17T04:30:20.042Z,24.125000
2022-08-17T04:35:31.932Z,24.400000
2022-08-17T04:40:20.151Z,24.670000
2022-08-17T04:45:19.907Z,24.788889
2022-08-17T04:50:19.946Z,24.670000
2022-08-17T04:55:20.036Z,24.600000
2022-08-17T05:00:20.249Z,24.700000
2022-08-17T05:05:19.826Z,24.900000
2022-08-17T05:10:26.627Z,25.208333
2022-08-17T05:15:19.850Z,25.430000
2022-08-17T05:20:21.137Z,25.500000
2022-08-17T05:25:19.838Z,25.500000
2022-08-17T05:30:19.795Z,25.400000
2022-08-17T05:35:20.464Z,25.400000
2022-08-17T05:40:21.674Z,25.475000
2022-08-17T05:45:55.931Z,25.650000
2022-08-17T05:50:24.419Z,25.825000
2022-08-17T05:55:19.897Z,25.988889
2022-08-17T06:00:22.292Z,26.160000
2022-08-17T06:05:19.972Z,26.336364
2022-08-17T06:10:19.949Z,26.461538
2022-08-17T06:15:19.948Z,26.654545
2022-08-17T06:20:22.574Z,26.800000
2022-08-17T06:25:19.836Z,26.790000
2022-08-17T06:30:28.773Z,26.666667
2022-08-17T06:35:19.918Z,26.600000
2022-08-17T06:40:22.902Z,26.600000
2022-08-17T06:45:19.929Z,26.650000
2022-08-17T06:50:19.983Z,26.700000
2022-08-17T06:55:20.196Z,26.763636
2022-08-17T07:00:19.937Z,26.900000
2022-08-17T07:05:26.417Z,27.040000
2022-08-17T07:10:20.209Z,27.158333
2022-08-17T07:15:21.298Z,27.350000
2022-08-17T07:20:20.045Z,27.709091
2022-08-17T07:25:20.837Z,28.136364
2022-08-17T07:30:20.060Z,28.530769
2022-08-17T07:35:21.338Z,28.780000
2022-08-17T07:40:20.326Z,28.977778
2022-08-17T07:45:20.184Z,29.218182
2022-08-17T07:50:25.370Z,29.490000
2022-08-17T07:55:21.588Z,29.820000
2022-08-17T08:00:27.965Z,30.125000
2022-08-17T08:05:48.709Z,30.355556
2022-08-17T08:10:18.998Z,30.492308
2022-08-17T08:15:22.051Z,30.530000
2022-08-17T08:20:42.515Z,30.627273
2022-08-17T08:25:19.978Z,30.710000
2022-08-17T08:30:20.087Z,30.800000
2022-08-17T08:35:22.615Z,30.900000
2022-08-17T08:40:26.102Z,31.015385
2022-08-17T08:45:28.988Z,31.314286
2022-08-17T08:50:37.078Z,31.400000
2022-08-17T08:55:23.863Z,31.400000
2022-08-17T09:00:20.476Z,31.741667
2022-08-17T09:05:20.657Z,31.980000
2022-08-17T09:10:20.386Z,31.784615
2022-08-17T09:15:23.418Z,31.333333
2022-08-17T09:20:27.183Z,31.127273
2022-08-17T09:25:20.239Z,31.545455
2022-08-17T09:30:20.752Z,32.190909
2022-08-17T09:35:20.247Z,32.340000
2022-08-17T09:40:29.208Z,32.150000
2022-08-17T09:45:20.270Z,32.150000
2022-08-17T09:51:03.771Z,32.260000
2022-08-17T09:55:24.389Z,32.311111
2022-08-17T10:00:20.235Z,32.281818
2022-08-17T10:05:20.331Z,32.000000
2022-08-17T10:10:21.593Z,31.500000
2022-08-17T10:15:24.861Z,31.100000
2022-08-17T10:20:20.213Z,30.770000
2022-08-17T10:25:23.597Z,30.266667
2022-08-17T10:30:23.441Z,29.987500
2022-08-17T10:35:25.436Z,29.483333
2022-08-17T10:40:20.418Z,28.711111
2022-08-17T10:45:20.300Z,28.072727
2022-08-17T10:50:22.621Z,27.600000
2022-08-17T10:55:20.240Z,27.512500
2022-08-17T11:00:24.180Z,28.010000
2022-08-17T11:05:20.569Z,28.812500
2022-08-17T11:10:23.103Z,29.266667
2022-08-17T11:15:20.280Z,29.028571
2022-08-17T11:20:20.389Z,28.730000
2022-08-17T11:25:20.780Z,28.533333
2022-08-17T11:30:20.250Z,28.616667
2022-08-17T11:35:20.480Z,28.981818
2022-08-17T11:40:20.480Z,29.100000
2022-08-17T11:45:32.539Z,28.980000
2022-08-17T11:50:27.748Z,29.200000
2022-08-17T11:55:35.494Z,29.620000
2022-08-17T12:00:20.405Z,29.991667
2022-08-17T12:05:21.758Z,30.177778
2022-08-17T12:10:20.285Z,30.218182
2022-08-17T12:15:20.343Z,30.008333
2022-08-17T12:20:20.362Z,30.000000
2022-08-17T12:25:22.042Z,29.911111
2022-08-17T12:30:20.509Z,29.688889
2022-08-17T12:35:20.397Z,29.288889
2022-08-17T12:40:20.416Z,28.950000
2022-08-17T12:45:22.376Z,28.900000
2022-08-17T12:50:29.639Z,28.900000
2022-08-17T12:55:33.964Z,28.740000
2022-08-17T13:00:20.425Z,28.269231
2022-08-17T13:05:22.917Z,27.733333
2022-08-17T13:10:31.626Z,27.581818
2022-08-17T13:15:20.473Z,27.412500
2022-08-17T13:20:20.501Z,27.100000
2022-08-17T13:25:23.476Z,26.928571
2022-08-17T13:30:20.846Z,27.111111
2022-08-17T13:35:29.655Z,27.310000
2022-08-17T13:40:20.805Z,27.400000
2022-08-17T13:45:34.270Z,27.400000
2022-08-17T13:50:20.434Z,27.258333
2022-08-17T13:55:20.582Z,26.900000
2022-08-17T14:00:21.118Z,26.353846
2022-08-17T14:05:20.429Z,25.940000
2022-08-17T14:10:20.421Z,25.860000
2022-08-17T14:15:20.701Z,25.890909
2022-08-17T14:20:22.181Z,25.875000
2022-08-17T14:25:20.494Z,26.233333
2022-08-17T14:30:20.620Z,26.836364
2022-08-17T14:35:20.512Z,27.466667
2022-08-17T14:40:22.505Z,27.775000
2022-08-17T14:45:31.511Z,27.800000
2022-08-17T14:50:28.697Z,27.545455
2022-08-17T14:55:20.500Z,27.300000
2022-08-17T15:00:22.932Z,27.020000
2022-08-17T15:05:20.641Z,26.745455
2022-08-17T15:10:20.930Z,26.545455
2022-08-17T15:15:20.540Z,26.500000
2022-08-17T15:20:23.448Z,26.500000
2022-08-17T15:25:20.468Z,26.441667
2022-08-17T15:30:29.711Z,26.308333
2022-08-17T15:35:22.100Z,26.200000
2022-08-17T15:40:20.575Z,26.300000
2022-08-17T15:45:20.531Z,26.480000
2022-08-17T15:50:20.480Z,26.730769
2022-08-17T15:55:24.175Z,26.966667
2022-08-17T16:00:20.578Z,27.130000
2022-08-17T16:05:27.365Z,27.150000
2022-08-17T16:10:35.173Z,27.100000
2022-08-17T16:15:21.602Z,27.025000
2022-08-17T16:20:21.102Z,26.988889
2022-08-17T16:25:21.004Z,26.900000
2022-08-17T16:30:20.562Z,26.800000
2022-08-17T16:35:21.982Z,26.677778
2022-08-17T16:40:20.603Z,26.500000
2022-08-17T16:45:20.609Z,26.255556
2022-08-17T16:50:20.561Z,26.044444
2022-08-17T16:55:20.543Z,25.860000
2022-08-17T17:00:20.613Z,25.718182
2022-08-17T17:05:20.846Z,25.540000
2022-08-17T17:10:32.732Z,25.354545
2022-08-17T17:15:32.542Z,25.210000
2022-08-17T17:20:20.495Z,25.200000
2022-08-17T17:26:08.485Z,25.100000
2022-08-17T17:30:20.625Z,25.100000
2022-08-17T17:35:56.657Z,25.011111
2022-08-17T17:40:20.676Z,24.900000
2022-08-17T17:45:21.041Z,25.025000
2022-08-17T17:50:20.631Z,25.300000
2022-08-17T17:55:21.134Z,25.625000
2022-08-17T18:00:20.723Z,25.691667
2022-08-17T18:05:20.550Z,25.509091
2022-08-17T18:10:29.416Z,25.355556
2022-08-17T18:15:33.318Z,25.360000
2022-08-17T18:20:20.679Z,25.600000
2022-08-17T18:25:44.841Z,25.845455
2022-08-17T18:30:20.679Z,26.000000
2022-08-17T18:35:20.511Z,26.000000
2022-08-17T18:40:44.709Z,26.085714
2022-08-17T18:45:20.592Z,26.100000
2022-08-17T18:50:44.697Z,26.060000
2022-08-17T18:55:32.659Z,25.900000
2022-08-17T19:00:32.765Z,25.775000
2022-08-17T19:05:20.649Z,25.685714
2022-08-17T19:10:46.844Z,25.472727
2022-08-17T19:15:21.094Z,25.287500
2022-08-17T19:20:23.119Z,25.100000
2022-08-17T19:25:34.333Z,24.933333
2022-08-17T19:30:26.309Z,24.845455
2022-08-17T19:35:33.824Z,24.712500
2022-08-17T19:40:50.625Z,24.530000
2022-08-17T19:45:33.087Z,24.208333
2022-08-17T19:50:20.572Z,24.030000
2022-08-17T19:55:21.009Z,24.022222
2022-08-17T20:00:20.650Z,24.100000
2022-08-17T20:05:20.701Z,24.100000
2022-08-17T20:10:37.173Z,24.100000
2022-08-17T20:15:35.892Z,24.237500
2022-08-17T20:20:21.881Z,24.454545
2022-08-17T20:25:35.312Z,24.650000
2022-08-17T20:30:21.984Z,24.700000
2022-08-17T20:35:21.787Z,24.681818
2022-08-17T20:40:32.656Z,24.600000
2022-08-17T20:45:23.070Z,24.530000
2022-08-17T20:50:22.982Z,24.500000
2022-08-17T20:55:29.797Z,24.390000
2022-08-17T21:00:38.318Z,24.230000
2022-08-17T21:05:20.818Z,24.100000
2022-08-17T21:10:23.851Z,24.100000
2022-08-17T21:15:21.923Z,24.000000
2022-08-17T21:20:22.733Z,23.990000
2022-08-17T21:25:21.322Z,23.854545
2022-08-17T21:30:20.615Z,23.741667
2022-08-17T21:35:20.570Z,23.836364
2022-08-17T21:40:21.147Z,23.975000
2022-08-17T21:45:20.486Z,24.000000
2022-08-17T21:50:20.523Z,24.000000
2022-08-17T21:55:20.702Z,24.000000
2022-08-17T22:00:32.546Z,24.000000
2022-08-17T22:05:20.616Z,23.937500
2022-08-17T22:10:20.619Z,23.900000
2022-08-17T22:15:20.604Z,23.900000
2022-08-17T22:20:20.745Z,23.841667
2022-08-17T22:25:20.637Z,23.766667
2022-08-17T22:30:20.660Z,23.690000
2022-08-17T22:35:21.098Z,23.418182
2022-08-17T22:40:20.500Z,22.900000
2022-08-17T22:45:20.506Z,22.436364
2022-08-17T22:50:20.536Z,22.166667
2022-08-17T22:55:20.818Z,22.022222
2022-08-17T23:00:20.629Z,21.936364
2022-08-17T23:05:20.712Z,21.836364
2022-08-17T23:10:20.813Z,21.792308
2022-08-17T23:15:21.104Z,21.700000
2022-08-17T23:20:20.590Z,21.588889
2022-08-17T23:25:20.497Z,21.460000
2022-08-17T23:30:20.543Z,21.261538
2022-08-17T23:35:20.636Z,21.125000
2022-08-17T23:40:32.546Z,21.070000
2022-08-17T23:45:20.450Z,20.944444
2022-08-17T23:50:20.604Z,20.791667
2022-08-17T23:55:20.560Z,20.790909
